createdAt,value
2022-12-11T00:00:33.361Z,0.00
2022-12-11T00:01:33.618Z,0.00
2022-12-11T00:02:33.980Z,1.00
2022-12-11T00:03:34.272Z,0.00
2022-12-11T00:04:34.471Z,0.00
2022-12-11T00:05:35.000Z,0.00
2022-12-11T00:06:35.207Z,0.00
2022-12-11T00:07:35.386Z,0.00
2022-12-11T00:08:35.725Z,0.00
2022-12-11T00:09:36.888Z,0.00
2022-12-11T00:10:38.074Z,1.00
2022-12-11T00:11:36.577Z,0.00
2022-12-11T00:12:36.875Z,0.00
2022-12-11T00:13:37.245Z,0.00
2022-12-11T00:14:37.475Z,0.00
2022-12-11T00:15:37.783Z,1.00
2022-12-11T00:16:38.180Z,0.00
2022-12-11T00:17:38.361Z,0.00
2022-12-11T00:18:38.684Z,0.00
2022-12-11T00:19:38.981Z,0.00
2022-12-11T00:20:39.299Z,0.00
2022-12-11T00:21:39.602Z,0.00
2022-12-11T00:22:39.979Z,0.00
2022-12-11T00:23:40.172Z,0.00
2022-12-11T00:24:40.859Z,0.00
2022-12-11T00:25:40.731Z,0.00
2022-12-11T00:26:41.053Z,0.00
2022-12-11T00:27:41.358Z,0.00
2022-12-11T00:28:41.701Z,0.00
2022-12-11T00:29:41.915Z,1.00
2022-12-11T00:30:42.210Z,0.00
2022-12-11T00:31:42.604Z,0.00
2022-12-11T00:32:42.840Z,0.00
2022-12-11T00:33:43.024Z,1.00
2022-12-11T00:34:43.306Z,1.00
2022-12-11T00:35:43.602Z,0.00
2022-12-11T00:36:43.933Z,0.00
2022-12-11T00:37:44.276Z,0.00
2022-12-11T00:38:44.520Z,0.00
2022-12-11T00:39:44.765Z,0.00
2022-12-11T00:40:45.036Z,0.00
2022-12-11T00:41:45.247Z,0.00
2022-12-11T00:42:45.520Z,0.00
2022-12-11T00:43:45.858Z,0.00
2022-12-11T00:44:46.113Z,0.00
2022-12-11T00:45:46.400Z,0.00
2022-12-11T00:46:46.743Z,0.00
2022-12-11T00:47:46.864Z,1.00
2022-12-11T00:48:47.260Z,0.00
2022-12-11T00:49:49.987Z,0.00
2022-12-11T00:50:47.996Z,0.00
2022-12-11T00:51:48.150Z,0.00
2022-12-11T00:52:48.421Z,1.00
2022-12-11T00:53:48.773Z,1.00
2022-12-11T00:54:49.099Z,0.00
2022-12-11T00:55:49.354Z,0.00
2022-12-11T00:56:49.595Z,0.00
2022-12-11T00:57:49.915Z,0.00
2022-12-11T00:58:50.318Z,0.00
2022-12-11T00:59:50.520Z,0.00
2022-12-11T01:00:50.790Z,1.00
2022-12-11T01:01:51.166Z,0.00
2022-12-11T01:02:51.524Z,0.00
2022-12-11T01:03:51.679Z,0.00
2022-12-11T01:04:51.986Z,1.00
2022-12-11T01:05:52.305Z,0.00
2022-12-11T01:06:52.639Z,0.00
2022-12-11T01:07:52.990Z,0.00
2022-12-11T01:08:53.275Z,0.00
2022-12-11T01:09:53.546Z,0.00
2022-12-11T01:10:53.925Z,0.00
2022-12-11T01:11:54.152Z,0.00
2022-12-11T01:12:54.463Z,0.00
2022-12-11T01:13:54.805Z,0.00
2022-12-11T01:14:55.250Z,0.00
2022-12-11T01:15:55.408Z,0.00
2022-12-11T01:16:55.713Z,0.00
2022-12-11T01:17:55.902Z,0.00
2022-12-11T01:18:56.344Z,0.00
2022-12-11T01:19:56.501Z,0.00
2022-12-11T01:20:56.828Z,0.00
2022-12-11T01:21:57.082Z,1.00
2022-12-11T01:22:57.452Z,0.00
2022-12-11T01:23:57.693Z,0.00
2022-12-11T01:24:57.996Z,0.00
2022-12-11T01:25:58.361Z,0.00
2022-12-11T01:26:58.558Z,0.00
2022-12-11T01:27:58.842Z,0.00
2022-12-11T01:28:59.148Z,0.00
2022-12-11T01:30:00.356Z,0.00
2022-12-11T01:30:59.865Z,0.00
2022-12-11T01:32:00.048Z,0.00
2022-12-11T01:33:00.397Z,0.00
2022-12-11T01:34:00.674Z,0.00
2022-12-11T01:35:01.023Z,0.00
2022-12-11T01:36:01.375Z,0.00
2022-12-11T01:37:01.677Z,0.00
2022-12-11T01:38:01.977Z,0.00
2022-12-11T01:39:02.350Z,0.00
2022-12-11T01:40:02.536Z,0.00
2022-12-11T01:41:02.863Z,0.00
2022-12-11T01:42:03.240Z,0.00
2022-12-11T01:43:03.536Z,0.00
2022-12-11T01:44:03.730Z,0.00
2022-12-11T01:45:04.008Z,0.00
2022-12-11T01:46:04.394Z,0.00
2022-12-11T01:47:04.602Z,0.00
2022-12-11T01:48:04.930Z,0.00
2022-12-11T01:49:05.283Z,0.00
2022-12-11T01:50:05.608Z,0.00
2022-12-11T01:51:05.925Z,0.00
2022-12-11T01:52:06.216Z,0.00
2022-12-11T01:53:06.558Z,0.00
2022-12-11T01:54:06.874Z,0.00
2022-12-11T01:55:07.186Z,0.00
2022-12-11T01:56:07.368Z,0.00
2022-12-11T01:57:07.700Z,0.00
2022-12-11T01:58:08.046Z,0.00
2022-12-11T01:59:08.356Z,0.00
2022-12-11T02:00:08.609Z,0.00
2022-12-11T02:01:08.993Z,0.00
2022-12-11T02:02:09.687Z,0.00
2022-12-11T02:03:09.429Z,0.00
2022-12-11T02:04:09.692Z,0.00
2022-12-11T02:05:10.302Z,0.00
2022-12-11T02:06:10.269Z,0.00
2022-12-11T02:07:10.617Z,0.00
2022-12-11T02:08:10.964Z,0.00
2022-12-11T02:09:11.311Z,0.00
2022-12-11T02:10:11.575Z,0.00
2022-12-11T02:11:11.939Z,0.00
2022-12-11T02:12:12.215Z,0.00
2022-12-11T02:13:12.300Z,1.00
2022-12-11T02:14:12.605Z,0.00
2022-12-11T02:15:13.225Z,0.00
2022-12-11T02:16:13.345Z,0.00
2022-12-11T02:17:13.557Z,0.00
2022-12-11T02:18:13.828Z,0.00
2022-12-11T02:19:14.009Z,0.00
2022-12-11T02:20:14.366Z,0.00
2022-12-11T02:21:14.597Z,0.00
2022-12-11T02:22:14.786Z,0.00
2022-12-11T02:23:15.090Z,0.00
2022-12-11T02:24:15.295Z,0.00
2022-12-11T02:25:15.634Z,0.00
2022-12-11T02:26:15.942Z,0.00
2022-12-11T02:27:16.290Z,0.00
2022-12-11T02:28:16.657Z,0.00
2022-12-11T02:29:16.862Z,0.00
2022-12-11T02:30:17.175Z,0.00
2022-12-11T02:31:17.545Z,0.00
2022-12-11T02:32:17.738Z,0.00
2022-12-11T02:33:18.073Z,0.00
2022-12-11T02:34:18.302Z,0.00
2022-12-11T02:35:18.577Z,0.00
2022-12-11T02:36:18.798Z,0.00
2022-12-11T02:37:19.093Z,0.00
2022-12-11T02:38:19.398Z,0.00
2022-12-11T02:39:19.714Z,0.00
2022-12-11T02:40:20.127Z,0.00
2022-12-11T02:41:20.326Z,0.00
2022-12-11T02:42:20.627Z,0.00
2022-12-11T02:43:21.030Z,0.00
2022-12-11T02:44:21.257Z,0.00
2022-12-11T02:45:21.466Z,0.00
2022-12-11T02:46:21.669Z,0.00
2022-12-11T02:47:22.014Z,0.00
2022-12-11T02:48:22.320Z,0.00
2022-12-11T02:49:22.702Z,0.00
2022-12-11T02:50:22.964Z,0.00
2022-12-11T02:51:23.298Z,0.00
2022-12-11T02:52:23.670Z,0.00
2022-12-11T02:53:23.895Z,0.00
2022-12-11T02:54:24.170Z,0.00
2022-12-11T02:55:24.493Z,0.00
2022-12-11T02:56:24.795Z,0.00
2022-12-11T02:57:25.151Z,0.00
2022-12-11T02:58:25.408Z,1.00
2022-12-11T02:59:25.678Z,0.00
2022-12-11T03:00:26.009Z,0.00
2022-12-11T03:01:26.361Z,0.00
2022-12-11T03:02:26.759Z,0.00
2022-12-11T03:03:26.945Z,0.00
2022-12-11T03:04:27.183Z,0.00
2022-12-11T03:05:27.521Z,0.00
2022-12-11T03:06:27.842Z,0.00
2022-12-11T03:07:28.186Z,0.00
2022-12-11T03:08:28.429Z,0.00
2022-12-11T03:09:28.651Z,0.00
2022-12-11T03:10:28.863Z,0.00
2022-12-11T03:11:29.214Z,0.00
2022-12-11T03:12:29.477Z,0.00
2022-12-11T03:13:29.799Z,0.00
2022-12-11T03:14:30.120Z,0.00
2022-12-11T03:15:30.453Z,0.00
2022-12-11T03:16:30.751Z,0.00
2022-12-11T03:17:31.161Z,0.00
2022-12-11T03:18:31.370Z,0.00
2022-12-11T03:19:32.197Z,0.00
2022-12-11T03:20:31.944Z,0.00
2022-12-11T03:21:32.289Z,0.00
2022-12-11T03:22:32.626Z,0.00
2022-12-11T03:23:32.931Z,0.00
2022-12-11T03:24:33.224Z,0.00
2022-12-11T03:25:33.413Z,0.00
2022-12-11T03:26:34.094Z,0.00
2022-12-11T03:27:33.960Z,0.00
2022-12-11T03:28:34.264Z,0.00
2022-12-11T03:29:34.595Z,0.00
2022-12-11T03:30:34.971Z,0.00
2022-12-11T03:31:35.212Z,0.00
2022-12-11T03:32:35.406Z,0.00
2022-12-11T03:33:35.754Z,0.00
2022-12-11T03:34:36.061Z,0.00
2022-12-11T03:35:36.364Z,0.00
2022-12-11T03:36:36.670Z,0.00
2022-12-11T03:37:36.917Z,0.00
2022-12-11T03:38:37.229Z,0.00
2022-12-11T03:39:37.571Z,0.00
2022-12-11T03:40:37.919Z,0.00
2022-12-11T03:41:38.253Z,0.00
2022-12-11T03:42:38.570Z,0.00
2022-12-11T03:43:38.938Z,0.00
2022-12-11T03:44:39.146Z,0.00
2022-12-11T03:45:39.505Z,0.00
2022-12-11T03:46:39.779Z,0.00
2022-12-11T03:47:40.003Z,0.00
2022-12-11T03:48:40.307Z,1.00
2022-12-11T03:49:40.625Z,0.00
2022-12-11T03:50:40.970Z,0.00
2022-12-11T03:51:41.294Z,0.00
2022-12-11T03:52:45.755Z,0.00
2022-12-11T03:53:42.053Z,0.00
2022-12-11T03:54:42.159Z,0.00
2022-12-11T03:55:42.514Z,0.00
2022-12-11T03:56:42.696Z,0.00
2022-12-11T03:57:42.969Z,0.00
2022-12-11T03:58:43.254Z,0.00
2022-12-11T03:59:43.628Z,0.00
2022-12-11T04:00:43.824Z,0.00
2022-12-11T04:01:44.157Z,0.00
2022-12-11T04:02:44.386Z,0.00
2022-12-11T04:03:44.720Z,0.00
2022-12-11T04:04:44.951Z,0.00
2022-12-11T04:05:45.292Z,0.00
2022-12-11T04:06:45.583Z,0.00
2022-12-11T04:07:45.968Z,0.00
2022-12-11T04:08:46.153Z,0.00
2022-12-11T04:09:46.486Z,0.00
2022-12-11T04:10:46.819Z,0.00
2022-12-11T04:11:47.161Z,0.00
2022-12-11T04:12:47.442Z,0.00
2022-12-11T04:13:47.809Z,0.00
2022-12-11T04:14:47.979Z,0.00
2022-12-11T04:15:48.332Z,0.00
2022-12-11T04:16:48.729Z,0.00
2022-12-11T04:17:48.868Z,1.00
2022-12-11T04:18:49.210Z,0.00
2022-12-11T04:19:49.626Z,0.00
2022-12-11T04:20:49.840Z,0.00
2022-12-11T04:21:50.213Z,0.00
2022-12-11T04:22:50.414Z,0.00
2022-12-11T04:23:50.743Z,0.00
2022-12-11T04:24:51.074Z,0.00
2022-12-11T04:25:51.424Z,0.00
2022-12-11T04:26:51.568Z,0.00
2022-12-11T04:27:51.940Z,0.00
2022-12-11T04:28:52.305Z,0.00
2022-12-11T04:29:52.750Z,0.00
2022-12-11T04:30:52.823Z,0.00
2022-12-11T04:31:53.104Z,0.00
2022-12-11T04:32:53.347Z,0.00
2022-12-11T04:33:53.551Z,0.00
2022-12-11T04:34:53.859Z,0.00
2022-12-11T04:35:54.155Z,0.00
2022-12-11T04:36:54.513Z,0.00
2022-12-11T04:37:55.009Z,0.00
2022-12-11T04:38:55.134Z,0.00
2022-12-11T04:39:55.505Z,0.00
2022-12-11T04:40:55.868Z,0.00
2022-12-11T04:41:56.217Z,0.00
2022-12-11T04:42:56.438Z,0.00
2022-12-11T04:43:56.758Z,0.00
2022-12-11T04:44:57.005Z,0.00
2022-12-11T04:45:57.417Z,0.00
2022-12-11T04:46:57.734Z,0.00
2022-12-11T04:47:57.967Z,0.00
2022-12-11T04:48:58.280Z,0.00
2022-12-11T04:49:58.561Z,0.00
2022-12-11T04:50:58.899Z,0.00
2022-12-11T04:51:59.172Z,0.00
2022-12-11T04:52:59.560Z,0.00
2022-12-11T04:53:59.814Z,0.00
2022-12-11T04:55:00.014Z,0.00
2022-12-11T04:56:00.328Z,0.00
2022-12-11T04:57:00.647Z,0.00
2022-12-11T04:58:00.971Z,0.00
2022-12-11T04:59:01.269Z,0.00
2022-12-11T05:00:01.667Z,0.00
2022-12-11T05:01:01.861Z,0.00
2022-12-11T05:02:02.210Z,0.00
2022-12-11T05:03:02.572Z,0.00
2022-12-11T05:04:02.744Z,0.00
2022-12-11T05:05:02.976Z,1.00
2022-12-11T05:06:03.250Z,1.00
2022-12-11T05:07:03.627Z,0.00
2022-12-11T05:08:04.050Z,0.00
2022-12-11T05:09:04.252Z,0.00
2022-12-11T05:10:04.630Z,0.00
2022-12-11T05:11:04.920Z,0.00
2022-12-11T05:12:05.207Z,1.00
2022-12-11T05:13:05.569Z,0.00
2022-12-11T05:14:05.913Z,0.00
2022-12-11T05:15:06.234Z,0.00
2022-12-11T05:16:06.613Z,0.00
2022-12-11T05:17:06.852Z,0.00
2022-12-11T05:18:07.114Z,0.00
2022-12-11T05:19:07.378Z,0.00
2022-12-11T05:20:07.694Z,0.00
2022-12-11T05:21:08.012Z,0.00
2022-12-11T05:22:08.358Z,0.00
2022-12-11T05:23:08.639Z,0.00
2022-12-11T05:24:08.851Z,0.00
2022-12-11T05:25:09.632Z,0.00
2022-12-11T05:26:09.475Z,0.00
2022-12-11T05:27:09.850Z,0.00
2022-12-11T05:28:10.034Z,0.00
2022-12-11T05:29:10.373Z,0.00
2022-12-11T05:30:10.735Z,0.00
2022-12-11T05:31:10.971Z,0.00
2022-12-11T05:32:11.298Z,0.00
2022-12-11T05:33:11.497Z,0.00
2022-12-11T05:34:11.864Z,0.00
2022-12-11T05:35:12.389Z,0.00
2022-12-11T05:36:12.461Z,0.00
2022-12-11T05:37:12.580Z,1.00
2022-12-11T05:38:12.993Z,0.00
2022-12-11T05:39:13.161Z,0.00
2022-12-11T05:40:13.543Z,0.00
2022-12-11T05:41:13.868Z,0.00
2022-12-11T05:42:14.214Z,0.00
2022-12-11T05:43:14.442Z,0.00
2022-12-11T05:44:14.664Z,0.00
2022-12-11T05:45:14.898Z,0.00
2022-12-11T05:46:15.292Z,0.00
2022-12-11T05:47:15.532Z,0.00
2022-12-11T05:48:15.857Z,0.00
2022-12-11T05:49:19.746Z,0.00
2022-12-11T05:50:16.618Z,0.00
2022-12-11T05:51:16.835Z,0.00
2022-12-11T05:52:17.196Z,0.00
2022-12-11T05:53:17.383Z,0.00
2022-12-11T05:54:17.736Z,0.00
2022-12-11T05:55:17.962Z,0.00
2022-12-11T05:56:18.287Z,0.00
2022-12-11T05:57:18.637Z,0.00
2022-12-11T05:58:18.877Z,0.00
2022-12-11T05:59:19.091Z,0.00
2022-12-11T06:00:19.342Z,0.00
2022-12-11T06:01:19.641Z,0.00
2022-12-11T06:02:20.015Z,1.00
2022-12-11T06:03:20.343Z,0.00
2022-12-11T06:04:20.593Z,0.00
2022-12-11T06:05:20.904Z,0.00
2022-12-11T06:06:21.169Z,0.00
2022-12-11T06:07:21.540Z,0.00
2022-12-11T06:08:21.826Z,0.00
2022-12-11T06:09:22.035Z,0.00
2022-12-11T06:10:22.408Z,0.00
2022-12-11T06:11:24.281Z,0.00
2022-12-11T06:12:22.969Z,0.00
2022-12-11T06:13:23.280Z,0.00
2022-12-11T06:14:23.672Z,0.00
2022-12-11T06:15:24.048Z,0.00
2022-12-11T06:16:24.300Z,0.00
2022-12-11T06:17:24.542Z,0.00
2022-12-11T06:18:24.798Z,0.00
2022-12-11T06:19:24.981Z,0.00
2022-12-11T06:20:25.348Z,0.00
2022-12-11T06:21:25.575Z,0.00
2022-12-11T06:22:25.788Z,0.00
2022-12-11T06:23:26.159Z,0.00
2022-12-11T06:24:26.519Z,0.00
2022-12-11T06:25:26.681Z,0.00
2022-12-11T06:26:26.961Z,1.00
2022-12-11T06:27:27.280Z,0.00
2022-12-11T06:28:27.618Z,0.00
2022-12-11T06:29:27.918Z,0.00
2022-12-11T06:30:38.642Z,0.00
2022-12-11T06:31:29.511Z,0.00
2022-12-11T06:32:28.755Z,0.00
2022-12-11T06:33:29.012Z,0.00
2022-12-11T06:34:29.506Z,0.00
2022-12-11T06:35:29.634Z,0.00
2022-12-11T06:36:30.032Z,1.00
2022-12-11T06:37:30.251Z,1.00
2022-12-11T06:38:30.644Z,1.00
2022-12-11T06:39:30.928Z,1.00
2022-12-11T06:40:31.300Z,0.00
2022-12-11T06:41:31.475Z,0.00
2022-12-11T06:42:31.827Z,0.00
2022-12-11T06:43:32.033Z,0.00
2022-12-11T06:44:32.344Z,1.00
2022-12-11T06:45:32.735Z,0.00
2022-12-11T06:46:33.065Z,0.00
2022-12-11T06:47:33.194Z,2.00
2022-12-11T06:48:33.465Z,1.00
2022-12-11T06:49:33.713Z,2.00
2022-12-11T06:50:34.135Z,1.00
2022-12-11T06:51:34.254Z,1.00
2022-12-11T06:52:34.560Z,1.00
2022-12-11T06:53:34.753Z,2.00
2022-12-11T06:54:35.019Z,2.00
2022-12-11T06:55:35.284Z,4.00
2022-12-11T06:56:35.528Z,4.00
2022-12-11T06:57:35.806Z,7.00
2022-12-11T06:58:36.086Z,5.00
2022-12-11T06:59:36.758Z,7.00
2022-12-11T07:00:36.648Z,7.00
2022-12-11T07:01:37.863Z,8.00
2022-12-11T07:02:37.172Z,10.00
2022-12-11T07:03:37.423Z,13.00
2022-12-11T07:04:37.665Z,16.00
2022-12-11T07:05:37.938Z,14.00
2022-12-11T07:06:38.220Z,17.00
2022-12-11T07:07:38.477Z,23.00
2022-12-11T07:08:38.817Z,25.00
2022-12-11T07:09:39.063Z,26.00
2022-12-11T07:10:39.350Z,27.00
2022-12-11T07:11:39.705Z,30.00
2022-12-11T07:12:39.959Z,33.00
2022-12-11T07:13:40.153Z,35.00
2022-12-11T07:14:40.451Z,33.00
2022-12-11T07:15:40.749Z,40.00
2022-12-11T07:16:41.056Z,42.00
2022-12-11T07:17:41.298Z,46.00
2022-12-11T07:18:41.588Z,47.00
2022-12-11T07:19:41.856Z,49.00
2022-12-11T07:20:42.122Z,54.00
2022-12-11T07:21:42.384Z,54.00
2022-12-11T07:22:46.457Z,58.00
2022-12-11T07:23:43.004Z,61.00
2022-12-11T07:24:43.392Z,63.00
2022-12-11T07:25:43.520Z,64.00
2022-12-11T07:26:43.861Z,71.00
2022-12-11T07:27:44.115Z,78.00
2022-12-11T07:28:44.408Z,78.00
2022-12-11T07:29:44.705Z,93.00
2022-12-11T07:30:45.013Z,99.00
2022-12-11T07:31:45.274Z,102.00
2022-12-11T07:32:45.567Z,102.00
2022-12-11T07:33:45.795Z,106.00
2022-12-11T07:34:51.399Z,116.00
2022-12-11T07:35:47.339Z,118.00
2022-12-11T07:36:46.636Z,129.00
2022-12-11T07:37:46.899Z,139.00
2022-12-11T07:38:47.161Z,142.00
2022-12-11T07:39:47.471Z,150.00
2022-12-11T07:40:47.748Z,159.00
2022-12-11T07:41:48.027Z,187.00
2022-12-11T07:42:48.295Z,193.00
2022-12-11T07:43:48.576Z,194.00
2022-12-11T07:44:48.885Z,214.00
2022-12-11T07:45:49.165Z,212.00
2022-12-11T07:46:49.469Z,218.00
2022-12-11T07:47:49.770Z,217.00
2022-12-11T07:48:50.027Z,218.00
2022-12-11T07:49:50.312Z,211.00
2022-12-11T07:50:50.591Z,211.00
2022-12-11T07:51:50.888Z,156.00
2022-12-11T07:52:51.169Z,172.00
2022-12-11T07:53:51.482Z,181.00
2022-12-11T07:54:52.348Z,200.00
2022-12-11T07:55:51.979Z,212.00
2022-12-11T07:56:53.947Z,199.00
2022-12-11T07:57:52.614Z,207.00
2022-12-11T07:58:52.880Z,224.00
2022-12-11T07:59:53.165Z,212.00
2022-12-11T08:00:53.497Z,204.00
2022-12-11T08:01:53.801Z,232.00
2022-12-11T08:02:54.110Z,263.00
2022-12-11T08:03:54.325Z,246.00
2022-12-11T08:04:54.637Z,225.00
2022-12-11T08:05:54.940Z,204.00
2022-12-11T08:06:55.275Z,290.00
2022-12-11T08:07:56.561Z,249.00
2022-12-11T08:08:55.860Z,263.00
2022-12-11T08:09:56.111Z,241.00
2022-12-11T08:10:56.397Z,278.00
2022-12-11T08:11:56.689Z,272.00
2022-12-11T08:12:57.045Z,236.00
2022-12-11T08:13:57.642Z,285.00
2022-12-11T08:14:57.542Z,354.00
2022-12-11T08:15:58.240Z,321.00
2022-12-11T08:16:58.176Z,295.00
2022-12-11T08:17:58.323Z,295.00
2022-12-11T08:18:58.680Z,325.00
2022-12-11T08:19:58.923Z,353.00
2022-12-11T08:20:59.241Z,388.00
2022-12-11T08:21:59.471Z,417.00
2022-12-11T08:22:59.777Z,396.00
2022-12-11T08:24:00.087Z,413.00
2022-12-11T08:25:00.335Z,466.00
2022-12-11T08:26:00.528Z,499.00
2022-12-11T08:27:01.010Z,455.00
2022-12-11T08:28:01.211Z,480.00
2022-12-11T08:29:01.451Z,551.00
2022-12-11T08:30:01.733Z,648.00
2022-12-11T08:31:02.061Z,578.00
2022-12-11T08:32:04.348Z,602.00
2022-12-11T08:33:02.519Z,644.00
2022-12-11T08:34:02.808Z,602.00
2022-12-11T08:35:03.205Z,653.00
2022-12-11T08:36:03.277Z,643.00
2022-12-11T08:37:03.574Z,659.00
2022-12-11T08:38:03.783Z,632.00
2022-12-11T08:39:04.038Z,629.00
2022-12-11T08:40:04.317Z,603.00
2022-12-11T08:41:04.617Z,691.00
2022-12-11T08:42:04.891Z,661.00
2022-12-11T08:43:05.182Z,662.00
2022-12-11T08:44:06.109Z,671.00
2022-12-11T08:45:05.827Z,604.00
2022-12-11T08:46:06.058Z,592.00
2022-12-11T08:47:06.351Z,529.00
2022-12-11T08:48:06.627Z,533.00
2022-12-11T08:49:06.947Z,523.00
2022-12-11T08:50:07.199Z,505.00
2022-12-11T08:51:07.474Z,477.00
2022-12-11T08:52:07.774Z,443.00
2022-12-11T08:53:08.160Z,443.00
2022-12-11T08:54:08.277Z,547.00
2022-12-11T08:55:08.818Z,489.00
2022-12-11T08:56:08.845Z,495.00
2022-12-11T08:57:09.580Z,518.00
2022-12-11T08:58:09.487Z,566.00
2022-12-11T08:59:09.734Z,594.00
2022-12-11T09:00:10.024Z,560.00
2022-12-11T09:01:10.380Z,562.00
2022-12-11T09:02:10.639Z,577.00
2022-12-11T09:03:12.985Z,548.00
2022-12-11T09:04:11.217Z,538.00
2022-12-11T09:05:11.731Z,562.00
2022-12-11T09:06:11.817Z,603.00
2022-12-11T09:07:12.167Z,568.00
2022-12-11T09:08:12.458Z,519.00
2022-12-11T09:09:12.784Z,494.00
2022-12-11T09:10:12.977Z,467.00
2022-12-11T09:11:13.300Z,424.00
2022-12-11T09:12:13.552Z,409.00
2022-12-11T09:13:13.838Z,403.00
2022-12-11T09:14:14.132Z,385.00
2022-12-11T09:15:14.528Z,390.00
2022-12-11T09:16:14.787Z,381.00
2022-12-11T09:17:15.074Z,386.00
2022-12-11T09:18:15.322Z,402.00
2022-12-11T09:19:15.664Z,385.00
2022-12-11T09:20:15.937Z,368.00
2022-12-11T09:21:16.201Z,351.00
2022-12-11T09:22:16.470Z,345.00
2022-12-11T09:23:16.767Z,356.00
2022-12-11T09:24:17.065Z,369.00
2022-12-11T09:25:17.351Z,366.00
2022-12-11T09:26:17.591Z,367.00
2022-12-11T09:27:17.885Z,351.00
2022-12-11T09:28:18.144Z,349.00
2022-12-11T09:29:18.505Z,377.00
2022-12-11T09:30:18.739Z,413.00
2022-12-11T09:31:19.125Z,415.00
2022-12-11T09:32:19.225Z,432.00
2022-12-11T09:33:19.541Z,446.00
2022-12-11T09:34:19.764Z,461.00
2022-12-11T09:35:20.090Z,475.00
2022-12-11T09:36:20.287Z,485.00
2022-12-11T09:37:20.594Z,475.00
2022-12-11T09:38:20.847Z,457.00
2022-12-11T09:39:21.160Z,450.00
2022-12-11T09:40:21.420Z,449.00
2022-12-11T09:41:21.762Z,461.00
2022-12-11T09:42:21.974Z,446.00
2022-12-11T09:43:22.344Z,455.00
2022-12-11T09:44:22.580Z,502.00
2022-12-11T09:45:22.863Z,578.00
2022-12-11T09:46:24.808Z,643.00
2022-12-11T09:47:23.501Z,613.00
2022-12-11T09:48:23.761Z,690.00
2022-12-11T09:49:24.094Z,719.00
2022-12-11T09:50:24.350Z,773.00
2022-12-11T09:51:24.634Z,750.00
2022-12-11T09:52:24.910Z,730.00
2022-12-11T09:53:27.020Z,694.00
2022-12-11T09:54:25.501Z,676.00
2022-12-11T09:55:25.724Z,660.00
2022-12-11T09:56:25.972Z,652.00
2022-12-11T09:57:26.254Z,616.00
2022-12-11T09:58:26.561Z,592.00
2022-12-11T09:59:26.831Z,597.00
2022-12-11T10:00:27.092Z,673.00
2022-12-11T10:01:27.406Z,776.00
2022-12-11T10:02:27.687Z,773.00
2022-12-11T10:03:28.135Z,726.00
2022-12-11T10:04:28.244Z,677.00
2022-12-11T10:05:28.528Z,628.00
2022-12-11T10:06:29.076Z,609.00
2022-12-11T10:07:29.146Z,645.00
2022-12-11T10:08:29.483Z,696.00
2022-12-11T10:09:29.698Z,716.00
2022-12-11T10:10:29.976Z,677.00
2022-12-11T10:11:30.292Z,610.00
2022-12-11T10:12:30.493Z,550.00
2022-12-11T10:13:30.780Z,496.00
2022-12-11T10:14:31.109Z,446.00
2022-12-11T10:15:31.403Z,431.00
2022-12-11T10:16:31.630Z,403.00
2022-12-11T10:17:31.997Z,397.00
2022-12-11T10:18:32.208Z,390.00
2022-12-11T10:19:32.489Z,375.00
2022-12-11T10:20:32.764Z,339.00
2022-12-11T10:21:33.033Z,332.00
2022-12-11T10:22:33.311Z,364.00
2022-12-11T10:23:33.544Z,414.00
2022-12-11T10:25:09.392Z,471.00
2022-12-11T10:25:35.106Z,523.00
2022-12-11T10:26:34.419Z,540.00
2022-12-11T10:27:35.127Z,537.00
2022-12-11T10:28:35.037Z,483.00
2022-12-11T10:29:35.287Z,506.00
2022-12-11T10:30:35.591Z,502.00
2022-12-11T10:31:35.897Z,482.00
2022-12-11T10:32:36.093Z,488.00
2022-12-11T10:33:36.328Z,461.00
2022-12-11T10:34:36.659Z,441.00
2022-12-11T10:35:36.926Z,442.00
2022-12-11T10:36:37.190Z,467.00
2022-12-11T10:37:37.470Z,493.00
2022-12-11T10:38:37.726Z,508.00
2022-12-11T10:39:38.118Z,679.00
2022-12-11T10:40:38.327Z,911.00
2022-12-11T10:41:38.596Z,1034.00
2022-12-11T10:42:44.058Z,1164.00
2022-12-11T10:43:40.131Z,1280.00
2022-12-11T10:44:39.448Z,1280.00
2022-12-11T10:45:39.758Z,1311.00
2022-12-11T10:46:40.122Z,1289.00
2022-12-11T10:47:40.299Z,1104.00
2022-12-11T10:48:45.313Z,880.00
2022-12-11T10:49:41.817Z,773.00
2022-12-11T10:50:41.148Z,799.00
2022-12-11T10:51:41.504Z,712.00
2022-12-11T10:52:41.774Z,638.00
2022-12-11T10:53:42.021Z,626.00
2022-12-11T10:54:42.338Z,583.00
2022-12-11T10:55:42.678Z,621.00
2022-12-11T10:56:42.886Z,653.00
2022-12-11T10:57:43.155Z,687.00
2022-12-11T10:58:43.421Z,690.00
2022-12-11T10:59:43.741Z,683.00
2022-12-11T11:00:43.983Z,660.00
2022-12-11T11:01:45.244Z,684.00
2022-12-11T11:02:44.562Z,646.00
2022-12-11T11:03:44.829Z,751.00
2022-12-11T11:04:45.091Z,1018.00
2022-12-11T11:05:49.382Z,1035.00
2022-12-11T11:06:45.633Z,877.00
2022-12-11T11:07:45.940Z,741.00
2022-12-11T11:08:46.169Z,686.00
2022-12-11T11:09:46.440Z,713.00
2022-12-11T11:10:46.723Z,792.00
2022-12-11T11:11:47.002Z,808.00
2022-12-11T11:12:48.183Z,800.00
2022-12-11T11:13:47.596Z,762.00
2022-12-11T11:14:47.870Z,746.00
2022-12-11T11:15:48.191Z,701.00
2022-12-11T11:16:48.471Z,687.00
2022-12-11T11:17:54.845Z,673.00
2022-12-11T11:18:49.991Z,710.00
2022-12-11T11:19:49.598Z,855.00
2022-12-11T11:20:49.748Z,948.00
2022-12-11T11:21:49.990Z,1214.00
2022-12-11T11:22:50.503Z,1360.00
2022-12-11T11:23:53.217Z,1343.00
2022-12-11T11:24:50.691Z,1204.00
2022-12-11T11:25:51.073Z,1086.00
2022-12-11T11:27:14.506Z,1017.00
2022-12-11T11:27:52.461Z,995.00
2022-12-11T11:28:51.755Z,988.00
2022-12-11T11:29:53.294Z,1000.00
2022-12-11T11:30:52.398Z,1145.00
2022-12-11T11:31:52.716Z,1187.00
2022-12-11T11:32:53.029Z,1253.00
2022-12-11T11:33:53.255Z,1142.00
2022-12-11T11:34:53.646Z,918.00
2022-12-11T11:35:54.011Z,760.00
2022-12-11T11:36:54.674Z,724.00
2022-12-11T11:37:54.506Z,709.00
2022-12-11T11:38:54.735Z,746.00
2022-12-11T11:39:56.738Z,840.00
2022-12-11T11:40:59.374Z,826.00
2022-12-11T11:41:56.576Z,747.00
2022-12-11T11:42:55.871Z,637.00
2022-12-11T11:43:56.220Z,574.00
2022-12-11T11:44:56.574Z,588.00
2022-12-11T11:45:56.745Z,629.00
2022-12-11T11:46:56.963Z,662.00
2022-12-11T11:47:57.301Z,640.00
2022-12-11T11:48:57.589Z,643.00
2022-12-11T11:49:57.968Z,601.00
2022-12-11T11:50:58.196Z,584.00
2022-12-11T11:51:58.408Z,588.00
2022-12-11T11:52:58.649Z,623.00
2022-12-11T11:53:58.959Z,710.00
2022-12-11T11:54:59.282Z,864.00
2022-12-11T11:55:59.582Z,936.00
2022-12-11T11:56:59.825Z,881.00
2022-12-11T11:58:00.196Z,831.00
2022-12-11T11:59:00.391Z,776.00
2022-12-11T12:00:00.773Z,785.00
2022-12-11T12:01:00.973Z,791.00
2022-12-11T12:02:01.227Z,703.00
2022-12-11T12:03:01.544Z,575.00
2022-12-11T12:04:01.768Z,526.00
2022-12-11T12:05:02.013Z,512.00
2022-12-11T12:06:02.426Z,511.00
2022-12-11T12:07:02.509Z,493.00
2022-12-11T12:08:02.827Z,537.00
2022-12-11T12:09:03.050Z,541.00
2022-12-11T12:10:03.374Z,554.00
2022-12-11T12:11:03.644Z,572.00
2022-12-11T12:12:03.917Z,540.00
2022-12-11T12:13:08.080Z,514.00
2022-12-11T12:14:22.557Z,507.00
2022-12-11T12:15:05.791Z,467.00
2022-12-11T12:16:17.682Z,435.00
2022-12-11T12:17:06.431Z,388.00
2022-12-11T12:18:06.606Z,362.00
2022-12-11T12:19:05.932Z,343.00
2022-12-11T12:20:06.182Z,355.00
2022-12-11T12:21:06.443Z,409.00
2022-12-11T12:22:07.592Z,417.00
2022-12-11T12:23:07.010Z,444.00
2022-12-11T12:24:07.286Z,441.00
2022-12-11T12:25:07.572Z,453.00
2022-12-11T12:26:07.843Z,445.00
2022-12-11T12:27:29.135Z,470.00
2022-12-11T12:28:09.566Z,469.00
2022-12-11T12:29:08.747Z,448.00
2022-12-11T12:30:08.993Z,432.00
2022-12-11T12:31:09.247Z,441.00
2022-12-11T12:32:09.572Z,416.00
2022-12-11T12:33:09.832Z,422.00
2022-12-11T12:34:10.140Z,383.00
2022-12-11T12:35:10.642Z,386.00
2022-12-11T12:36:10.693Z,361.00
2022-12-11T12:37:10.967Z,375.00
2022-12-11T12:38:11.240Z,382.00
2022-12-11T12:39:11.518Z,443.00
2022-12-11T12:40:11.794Z,454.00
2022-12-11T12:41:12.141Z,443.00
2022-12-11T12:42:12.360Z,447.00
2022-12-11T12:43:12.607Z,435.00
2022-12-11T12:44:12.977Z,437.00
2022-12-11T12:45:13.500Z,398.00
2022-12-11T12:46:13.651Z,377.00
2022-12-11T12:47:13.762Z,362.00
2022-12-11T12:48:14.059Z,359.00
2022-12-11T12:49:14.388Z,364.00
2022-12-11T12:50:14.663Z,388.00
2022-12-11T12:51:14.993Z,366.00
2022-12-11T12:52:15.265Z,352.00
2022-12-11T12:53:15.479Z,370.00
2022-12-11T12:54:15.759Z,359.00
2022-12-11T12:55:16.145Z,356.00
2022-12-11T12:56:16.361Z,345.00
2022-12-11T12:57:16.578Z,329.00
2022-12-11T12:58:16.889Z,329.00
2022-12-11T12:59:17.171Z,350.00